Terminal Aerodrome Forecast
Issued by NWS Northern Indiana

Home | Current Version | Previous Version | Text Only | Print | Product List | Glossary On
Versions: 1 2 3 4 5 6 7 8 9 10 11 12 13 14 15
000
FTUS43 KIWX 271739
TAFFWA
TAF
KFWA 271739Z 2718/2818 08014G22KT P6SM SCT020 BKN040
      TEMPO 2722/2802 BKN020
     FM280200 06014KT 6SM -SHRA BR OVC020
     FM280600 07012KT 4SM SHRA BR OVC008
     FM281100 05010KT P6SM OVC008
     FM281600 06010KT P6SM OVC015=

USA.gov is the U.S. government's official web portal to all federal, state and local government web resources and services.